»·PEaware :: UAL2094 KIAH-KLGA

UAL2094 :: KIAH-KLGA

FLIGHT INFORMATION

Flight Status: Arrived
Operator:
United Airlines
More flights by this operator :: More flights under this callsign
Pilot: Henderson P. (1210)
Aircraft: AIRBUS A320
(A320)
More flights by this aircraft type
Origin: KIAH G Bush Intercontinental/Houst
United States
Destination: KLGA La Guardia
United States
More flights between these airports :: More routes between these airports
Route: LURIC6 ORRTH BNA J42 GVE KORRY4
File this flight plan on PilotEdge
Remarks:
Altitude:
(Current/Filed)
37,000ft
Speed:
(Current/Filed)
453kts
Departed: 13-Oct-18 01:45 PM
Arrived: 13-Oct-18 04:31 PM
Distance/Time
Traveled:
1229nm/2:46
Distance/Time
To Go:
Arrived

Flight Plot

Page will automatically refresh every two minutes.

Flight plan parsing failed; only flown route is shown


Map Options




Map Legend


Flown Route
Filed Route
Departure Airport
Arrival Airport
Navaid (VOR, NDB)
Fix

Horizontal Profiles

Position Reports

Time Latitude Longitude Heading Altitude Ground
Speed
13-Oct-18 12:36 29.984949 -95.337984 292 111ft 0kts
13-Oct-18 12:37 29.984949 -95.337984 292 111ft 0kts
13-Oct-18 12:38 29.984949 -95.337984 292 111ft 0kts
13-Oct-18 12:39 29.984949 -95.337984 292 111ft 0kts
13-Oct-18 12:40 29.984949 -95.337984 292 111ft 0kts
13-Oct-18 12:41 29.984949 -95.337984 292 111ft 0kts
13-Oct-18 12:42 29.984949 -95.337984 292 111ft 0kts
13-Oct-18 12:43 29.984949 -95.337984 292 111ft 0kts
13-Oct-18 12:44 29.984949 -95.337984 292 111ft 0kts
13-Oct-18 12:45 29.984949 -95.337984 292 111ft 0kts
13-Oct-18 12:46 29.984949 -95.337984 292 111ft 0kts
13-Oct-18 12:47 29.984949 -95.337984 292 111ft 0kts
13-Oct-18 12:48 29.984949 -95.337984 292 111ft 0kts
13-Oct-18 12:49 29.984949 -95.337984 292 111ft 0kts
13-Oct-18 12:50 29.984949 -95.337984 292 111ft 0kts
13-Oct-18 12:51 29.984949 -95.337984 292 111ft 0kts
13-Oct-18 12:52 29.984949 -95.337984 292 111ft 0kts
13-Oct-18 12:53 29.984949 -95.337984 292 111ft 0kts
13-Oct-18 12:54 29.984949 -95.337984 292 111ft 0kts
13-Oct-18 12:55 29.984949 -95.337984 292 111ft 0kts
13-Oct-18 12:56 29.984949 -95.337984 292 111ft 0kts
13-Oct-18 12:57 29.984949 -95.337984 292 111ft 0kts
13-Oct-18 12:58 29.984949 -95.337984 292 111ft 0kts
13-Oct-18 12:59 29.984949 -95.337984 292 111ft 0kts
13-Oct-18 13:00 29.984949 -95.337984 292 111ft 0kts
13-Oct-18 13:01 29.984949 -95.337984 292 111ft 0kts
13-Oct-18 13:02 29.984949 -95.337984 292 111ft 0kts
13-Oct-18 13:03 29.984949 -95.337984 292 111ft 0kts
13-Oct-18 13:04 29.984949 -95.337984 292 111ft 0kts
13-Oct-18 13:05 29.984949 -95.337984 292 111ft 0kts
13-Oct-18 13:06 29.984949 -95.337984 292 111ft 0kts
13-Oct-18 13:07 29.984949 -95.337984 292 111ft 0kts
13-Oct-18 13:08 29.984949 -95.337984 292 111ft 0kts
13-Oct-18 13:09 29.984949 -95.337984 292 111ft 0kts
13-Oct-18 13:10 29.984949 -95.337984 292 111ft 0kts
13-Oct-18 13:11 29.984949 -95.337984 292 111ft 0kts
13-Oct-18 13:12 29.984949 -95.337984 292 111ft 0kts
13-Oct-18 13:13 29.984949 -95.337984 292 111ft 0kts
13-Oct-18 13:14 29.984949 -95.337984 292 111ft 0kts
13-Oct-18 13:15 29.984949 -95.337984 292 111ft 0kts
13-Oct-18 13:16 29.984949 -95.337984 292 111ft 0kts
13-Oct-18 13:17 29.984949 -95.337984 292 111ft 0kts
13-Oct-18 13:18 29.984949 -95.337984 292 111ft 0kts
13-Oct-18 13:19 29.984949 -95.337984 292 111ft 0kts
13-Oct-18 13:20 29.984949 -95.337984 292 111ft 0kts
13-Oct-18 13:21 29.984949 -95.337984 292 111ft 0kts
13-Oct-18 13:22 29.984949 -95.337984 292 111ft 0kts
13-Oct-18 13:23 29.984949 -95.337984 292 111ft 0kts
13-Oct-18 13:24 29.984949 -95.337984 292 111ft 0kts
13-Oct-18 13:25 29.984949 -95.337984 292 111ft 0kts
13-Oct-18 13:26 29.984949 -95.337984 292 111ft 0kts
13-Oct-18 13:27 29.984949 -95.337984 292 111ft 0kts
13-Oct-18 13:28 29.984730 -95.337373 291 111ft 1kts
13-Oct-18 13:29 29.984718 -95.337337 291 111ft 0kts
13-Oct-18 13:30 29.984718 -95.337338 291 111ft 0kts
13-Oct-18 13:31 29.984718 -95.337338 291 111ft 0kts
13-Oct-18 13:32 29.984718 -95.337339 291 111ft 0kts
13-Oct-18 13:33 29.984719 -95.337340 291 111ft 0kts
13-Oct-18 13:34 29.984671 -95.337404 195 111ft 0kts
13-Oct-18 13:35 29.983146 -95.338201 266 111ft 13kts
13-Oct-18 13:36 29.983743 -95.343939 270 111ft 22kts
13-Oct-18 13:37 29.983810 -95.351303 271 111ft 19kts
13-Oct-18 13:38 29.986569 -95.354914 331 111ft 18kts
13-Oct-18 13:39 29.988274 -95.356773 242 111ft 0kts
13-Oct-18 13:40 29.988274 -95.356774 242 111ft 0kts
13-Oct-18 13:41 29.988274 -95.356774 242 111ft 0kts
13-Oct-18 13:42 29.988273 -95.356775 242 111ft 0kts
13-Oct-18 13:43 29.988273 -95.356776 242 111ft 0kts
13-Oct-18 13:44 29.988273 -95.356777 242 111ft 0kts
13-Oct-18 13:45 29.988272 -95.356778 242 111ft 0kts
13-Oct-18 13:46 29.988189 -95.356953 240 111ft 3kts
13-Oct-18 13:47 29.973611 -95.349180 151 113ft 163kts
13-Oct-18 13:48 29.937773 -95.356878 261 2352ft 189kts
13-Oct-18 13:49 29.968641 -95.419567 330 4214ft 274kts
13-Oct-18 13:50 30.027702 -95.375464 73 6912ft 299kts
13-Oct-18 13:51 30.070812 -95.288693 59 9831ft 323kts
13-Oct-18 13:52 30.140001 -95.216837 30 11960ft 360kts
13-Oct-18 13:53 30.227645 -95.147772 32 13785ft 396kts
13-Oct-18 13:54 30.319169 -95.074280 31 16099ft 407kts
13-Oct-18 13:55 30.414149 -94.998341 30 18152ft 420kts
13-Oct-18 13:56 30.513110 -94.922725 29 20060ft 432kts
13-Oct-18 13:57 30.614708 -94.844705 29 21804ft 443kts
13-Oct-18 13:58 30.718718 -94.764668 29 23370ft 454kts
13-Oct-18 13:59 30.825184 -94.682609 29 24780ft 463kts
13-Oct-18 14:00 30.933578 -94.598674 30 26088ft 473kts
13-Oct-18 14:01 31.044169 -94.512924 30 27363ft 481kts
13-Oct-18 14:02 31.156203 -94.426019 30 28564ft 489kts
13-Oct-18 14:03 31.270195 -94.336980 30 29730ft 496kts
13-Oct-18 14:04 31.385839 -94.246658 30 31034ft 498kts
13-Oct-18 14:05 31.500616 -94.156530 30 32443ft 496kts
13-Oct-18 14:06 31.614914 -94.066728 30 33797ft 493kts
13-Oct-18 14:07 31.728314 -93.977231 30 34944ft 493kts
13-Oct-18 14:08 31.828496 -93.865957 50 35874ft 504kts
13-Oct-18 14:09 31.913130 -93.734408 49 36733ft 505kts
13-Oct-18 14:10 31.999057 -93.603898 50 36879ft 506kts
13-Oct-18 14:11 32.084922 -93.472154 49 36891ft 505kts
13-Oct-18 14:12 32.170302 -93.340744 49 36892ft 505kts
13-Oct-18 14:13 32.255648 -93.208899 50 36891ft 505kts
13-Oct-18 14:14 32.340724 -93.077203 50 36884ft 506kts
13-Oct-18 14:15 32.426099 -92.944439 50 36986ft 505kts
13-Oct-18 14:16 32.510886 -92.812078 50 36991ft 505kts
13-Oct-18 14:17 32.595682 -92.679522 50 36988ft 504kts
13-Oct-18 14:18 32.680570 -92.546935 50 36953ft 504kts
13-Oct-18 14:19 32.765119 -92.414248 50 36912ft 504kts
13-Oct-18 14:20 32.849752 -92.281004 50 36943ft 503kts
13-Oct-18 14:21 32.933996 -92.147890 50 36928ft 504kts
13-Oct-18 14:22 33.018288 -92.014171 50 36980ft 504kts
13-Oct-18 14:23 33.102315 -91.880438 50 36987ft 504kts
13-Oct-18 14:24 33.186002 -91.746819 50 36972ft 503kts
13-Oct-18 14:25 33.269602 -91.612742 50 36956ft 502kts
13-Oct-18 14:26 33.352887 -91.478730 50 36950ft 503kts
13-Oct-18 14:27 33.436359 -91.343935 50 37008ft 503kts
13-Oct-18 14:28 33.519611 -91.208988 50 36991ft 504kts
13-Oct-18 14:29 33.602577 -91.074002 50 36980ft 502kts
13-Oct-18 14:30 33.685287 -90.939016 50 36954ft 501kts
13-Oct-18 14:31 33.767445 -90.804220 50 36925ft 501kts
13-Oct-18 14:32 33.849648 -90.669060 50 36908ft 500kts
13-Oct-18 14:33 33.931682 -90.533723 50 36920ft 499kts
13-Oct-18 14:34 34.013081 -90.398666 50 36931ft 499kts
13-Oct-18 14:35 34.094847 -90.262708 50 36958ft 501kts
13-Oct-18 14:36 34.176550 -90.126250 50 37026ft 501kts
13-Oct-18 14:37 34.257949 -89.989802 51 37035ft 499kts
13-Oct-18 14:38 34.338989 -89.853439 51 36969ft 499kts
13-Oct-18 14:39 34.419899 -89.716910 51 36978ft 501kts
13-Oct-18 14:40 34.501108 -89.579110 51 37066ft 503kts
13-Oct-18 14:41 34.582120 -89.441255 51 37073ft 503kts
13-Oct-18 14:42 34.663094 -89.302875 51 37059ft 502kts
13-Oct-18 14:43 34.744100 -89.163984 51 37020ft 503kts
13-Oct-18 14:44 34.824856 -89.024927 51 37002ft 505kts
13-Oct-18 14:45 34.905791 -88.885056 51 37081ft 504kts
13-Oct-18 14:46 34.986366 -88.745155 51 37083ft 505kts
13-Oct-18 14:47 35.066961 -88.604730 51 37084ft 505kts
13-Oct-18 14:48 35.147251 -88.464192 51 37058ft 505kts
13-Oct-18 14:49 35.227624 -88.323083 51 37050ft 504kts
13-Oct-18 14:50 35.307565 -88.182063 51 37048ft 504kts
13-Oct-18 14:51 35.387345 -88.040878 51 37043ft 505kts
13-Oct-18 14:52 35.467067 -87.899082 51 37062ft 506kts
13-Oct-18 14:53 35.546951 -87.756548 51 37102ft 506kts
13-Oct-18 14:54 35.626455 -87.613981 51 37109ft 505kts
13-Oct-18 14:55 35.705682 -87.471397 51 37104ft 505kts
13-Oct-18 14:56 35.784830 -87.328405 51 37052ft 505kts
13-Oct-18 14:57 35.863828 -87.185086 51 37046ft 506kts
13-Oct-18 14:58 35.942543 -87.041576 51 37113ft 505kts
13-Oct-18 14:59 36.014639 -86.909762 51 37125ft 505kts
13-Oct-18 15:00 36.093211 -86.765403 51 37071ft 506kts
13-Oct-18 15:01 36.161345 -86.612338 65 37093ft 516kts
13-Oct-18 15:02 36.213848 -86.446567 64 37140ft 517kts
13-Oct-18 15:03 36.258580 -86.309191 65 37138ft 515kts
13-Oct-18 15:04 36.320004 -86.117263 65 37090ft 513kts
13-Oct-18 15:05 36.363837 -85.979348 65 37052ft 514kts
13-Oct-18 15:06 36.424966 -85.786607 65 37070ft 514kts
13-Oct-18 15:07 36.468390 -85.648665 65 37063ft 517kts
13-Oct-18 15:08 36.529325 -85.454402 65 37140ft 518kts
13-Oct-18 15:09 36.572812 -85.314584 65 37141ft 520kts
13-Oct-18 15:10 36.624746 -85.146754 65 37158ft 520kts
13-Oct-18 15:11 36.676497 -84.978864 65 37157ft 521kts
13-Oct-18 15:12 36.728191 -84.809740 65 37158ft 521kts
13-Oct-18 15:13 36.779646 -84.640757 65 37182ft 522kts
13-Oct-18 15:14 36.830879 -84.471263 65 37180ft 522kts
13-Oct-18 15:15 36.882013 -84.301073 65 37180ft 523kts
13-Oct-18 15:16 36.932803 -84.130886 65 37172ft 523kts
13-Oct-18 15:17 36.983611 -83.959910 65 37132ft 524kts
13-Oct-18 15:18 37.034198 -83.788543 65 37130ft 525kts
13-Oct-18 15:19 37.084481 -83.616649 65 37147ft 526kts
13-Oct-18 15:20 37.134859 -83.444101 65 37173ft 527kts
13-Oct-18 15:21 37.184782 -83.271369 65 37185ft 528kts
13-Oct-18 15:22 37.234805 -83.097534 65 37185ft 528kts
13-Oct-18 15:23 37.292652 -82.894965 65 37140ft 529kts
13-Oct-18 15:24 37.333777 -82.750165 65 37172ft 529kts
13-Oct-18 15:25 37.383071 -82.575486 65 37113ft 530kts
13-Oct-18 15:26 37.432049 -82.400564 65 37112ft 532kts
13-Oct-18 15:27 37.481148 -82.224426 65 37145ft 534kts
13-Oct-18 15:28 37.530054 -82.047575 65 37219ft 535kts
13-Oct-18 15:29 37.578616 -81.870412 65 37236ft 535kts
13-Oct-18 15:30 37.627122 -81.693021 65 37246ft 534kts
13-Oct-18 15:31 37.675102 -81.515833 66 37227ft 534kts
13-Oct-18 15:32 37.722999 -81.337824 66 37198ft 535kts
13-Oct-18 15:33 37.770701 -81.159353 66 37198ft 536kts
13-Oct-18 15:34 37.790860 -80.970892 83 37166ft 544kts
13-Oct-18 15:35 37.803216 -80.780356 82 37123ft 545kts
13-Oct-18 15:36 37.815456 -80.588671 83 37784ft 547kts
13-Oct-18 15:37 37.827645 -80.396571 83 38602ft 548kts
13-Oct-18 15:38 37.839341 -80.204658 83 39169ft 548kts
13-Oct-18 15:39 37.850852 -80.011678 83 39165ft 549kts
13-Oct-18 15:40 37.862044 -79.819103 83 39154ft 549kts
13-Oct-18 15:41 37.872876 -79.626330 84 39185ft 548kts
13-Oct-18 15:42 37.883375 -79.433837 84 39187ft 548kts
13-Oct-18 15:43 37.893495 -79.241619 84 39188ft 547kts
13-Oct-18 15:44 37.907050 -79.050576 78 39188ft 544kts
13-Oct-18 15:45 37.930563 -78.861366 78 39181ft 543kts
13-Oct-18 15:46 37.952906 -78.672024 78 39175ft 542kts
13-Oct-18 15:47 37.975277 -78.483553 78 39143ft 542kts
13-Oct-18 15:48 37.997369 -78.294262 78 39125ft 542kts
13-Oct-18 15:49 38.018890 -78.073218 82 39136ft 543kts
13-Oct-18 15:50 38.028610 -77.913468 82 39184ft 544kts
13-Oct-18 15:51 38.040449 -77.721996 83 39217ft 545kts
13-Oct-18 15:52 38.051946 -77.530271 83 39207ft 544kts
13-Oct-18 15:53 38.062951 -77.339566 83 39197ft 541kts
13-Oct-18 15:54 38.073730 -77.149268 84 39195ft 539kts
13-Oct-18 15:55 38.084156 -76.959987 84 39158ft 537kts
13-Oct-18 15:56 38.094178 -76.770894 84 39146ft 535kts
13-Oct-18 15:57 38.142959 -76.600826 40 39100ft 507kts
13-Oct-18 15:58 38.239595 -76.469494 41 39155ft 513kts
13-Oct-18 15:59 38.342461 -76.348278 26 39164ft 496kts
13-Oct-18 16:00 38.454282 -76.246823 27 39178ft 492kts
13-Oct-18 16:01 38.564627 -76.143878 27 39115ft 490kts
13-Oct-18 16:02 38.675366 -76.040676 27 39113ft 494kts
13-Oct-18 16:03 38.786566 -75.936801 28 39203ft 497kts
13-Oct-18 16:04 38.898011 -75.832055 27 38434ft 495kts
13-Oct-18 16:05 39.009184 -75.727359 27 36332ft 497kts
13-Oct-18 16:06 39.121352 -75.620944 27 35093ft 502kts
13-Oct-18 16:07 39.235069 -75.513051 26 32149ft 509kts
13-Oct-18 16:08 39.351048 -75.410035 22 29410ft 496kts
13-Oct-18 16:09 39.458425 -75.314289 22 26745ft 457kts
13-Oct-18 16:10 39.560063 -75.221451 26 24068ft 439kts
13-Oct-18 16:11 39.656814 -75.130579 26 21553ft 420kts
13-Oct-18 16:12 39.750821 -75.048319 24 19171ft 397kts
13-Oct-18 16:13 39.840393 -74.971002 25 16901ft 377kts
13-Oct-18 16:14 39.924367 -74.893802 34 14696ft 368kts
13-Oct-18 16:15 39.993471 -74.795331 41 12532ft 366kts
13-Oct-18 16:16 40.060984 -74.698748 42 10763ft 343kts
13-Oct-18 16:17 40.120312 -74.613382 42 10058ft 296kts
13-Oct-18 16:18 40.174807 -74.534836 43 8736ft 282kts
13-Oct-18 16:19 40.227914 -74.462714 39 7805ft 267kts
13-Oct-18 16:20 40.280247 -74.396785 39 6971ft 255kts
13-Oct-18 16:21 40.332435 -74.330807 40 6153ft 264kts
13-Oct-18 16:22 40.383903 -74.265520 40 5337ft 250kts
13-Oct-18 16:23 40.429933 -74.207112 40 4616ft 262kts
13-Oct-18 16:24 40.476598 -74.147615 40 3813ft 254kts
13-Oct-18 16:25 40.529575 -74.084226 30 3051ft 251kts
13-Oct-18 16:26 40.585094 -74.038202 29 2742ft 210kts
13-Oct-18 16:27 40.625338 -74.003278 30 2723ft 179kts
13-Oct-18 16:28 40.665766 -73.969340 27 2386ft 152kts
13-Oct-18 16:29 40.698011 -73.942811 26 1676ft 126kts
13-Oct-18 16:30 40.727685 -73.918342 27 996ft 126kts
13-Oct-18 16:31 40.757324 -73.893878 27 327ft 124kts
13-Oct-18 16:32 40.782701 -73.872947 31 14ft 66kts
13-Oct-18 16:33 40.783015 -73.871180 212 14ft 18kts
13-Oct-18 16:34 40.779079 -73.874121 138 14ft 9kts
13-Oct-18 16:35 40.777649 -73.871384 179 14ft 2kts
13-Oct-18 16:36 40.776730 -73.872856 249 14ft 8kts
13-Oct-18 16:37 40.775878 -73.875109 211 14ft 6kts
13-Oct-18 16:38 40.774327 -73.873896 102 14ft 12kts
13-Oct-18 16:39 40.774535 -73.870901 31 14ft 6kts
13-Oct-18 16:40 40.774631 -73.869860 133 14ft 0kts
13-Oct-18 16:41 40.774631 -73.869860 133 14ft 0kts
13-Oct-18 16:42 40.774631 -73.869860 133 14ft 0kts
13-Oct-18 16:43 40.774631 -73.869860 133 14ft 0kts
13-Oct-18 16:44 40.774631 -73.869860 133 14ft 0kts

Navigation Log

Ident Type
Flight plan parsing failed, navigation log unavailable